^^
Station Historical Data
 
Daily Summary for October 22, 2017 Units:  English    Metric   Both
« Previous Day
Next Day »
Daily Weekly Monthly Yearly Custom
  Current: High: Low: Average:
Temperature: 60.8 °F 60.8 °F 57.2 °F 59 °F
Dew Point: 58.8 °F 58.8 °F 56.1 °F 57 °F
Humidity: 93% 98% 85% 93%
Wind Speed: 3.5mph 4.6mph 1.2mph 2.9mph
Wind Gust: 3.5mph 4.6mph - -
WindSSE - - South
Pressure: 29.80 in 29.86 in 29.79 in -
Precipitation: 0.00 in      
Historical Graphs
 
 
Tabular Data for October 22, 2017
Time Temperature Dew Point Pressure Wind Wind Speed Wind Gust Humidity Rainfall Rate (Hourly) solar Conditions
00:02 60.8 °F 56.3 °F 29.86 in West 3.5 mph 3.5 mph 85% 0.00 in 0.0 W/m2 OVC
00:07 60.8 °F 56.3 °F 29.86 in WSW 3.5 mph 3.5 mph 85% 0.00 in 0.0 W/m2 OVC
00:12 60.8 °F 56.3 °F 29.85 in SE 3.5 mph 3.5 mph 85% 0.00 in 0.0 W/m2 OVC
00:17 60.8 °F 56.3 °F 29.85 in South 3.5 mph 3.5 mph 85% 0.00 in 0.0 W/m2 OVC
00:22 60.8 °F 56.6 °F 29.85 in SW 2.3 mph 2.3 mph 86% 0.00 in 0.0 W/m2 OVC
00:27 60.8 °F 56.6 °F 29.85 in NNW 2.3 mph 2.3 mph 86% 0.00 in 0.0 W/m2 OVC
00:32 60.8 °F 56.6 °F 29.85 in WSW 2.3 mph 2.3 mph 86% 0.00 in 0.0 W/m2 OVC
00:37 60.8 °F 56.6 °F 29.84 in South 2.3 mph 2.3 mph 86% 0.00 in 0.0 W/m2 OVC
00:42 60.8 °F 57.2 °F 29.84 in ENE 2.3 mph 2.3 mph 88% 0.00 in 0.0 W/m2 OVC
00:47 60.8 °F 57.2 °F 29.84 in East 3.5 mph 3.5 mph 88% 0.00 in 0.0 W/m2 OVC
00:52 60.8 °F 57.8 °F 29.84 in NE 3.5 mph 3.5 mph 90% 0.00 in 0.0 W/m2 OVC
00:57 59.0 °F 56.4 °F 29.84 in NNW 2.3 mph 2.3 mph 91% 0.00 in 0.0 W/m2 OVC
01:02 59.0 °F 56.4 °F 29.84 in SW 2.3 mph 2.3 mph 91% 0.00 in 0.0 W/m2 OVC
01:07 59.0 °F 56.4 °F 29.84 in West 2.3 mph 2.3 mph 91% 0.00 in 0.0 W/m2 OVC
01:12 59.0 °F 56.4 °F 29.84 in NW 2.3 mph 2.3 mph 91% 0.00 in 0.0 W/m2 OVC
01:17 59.0 °F 56.4 °F 29.84 in East 2.3 mph 2.3 mph 91% 0.00 in 0.0 W/m2 OVC
01:22 59.0 °F 57.0 °F 29.84 in SW 2.3 mph 2.3 mph 93% 0.00 in 0.0 W/m2 OVC
01:27 59.0 °F 57.0 °F 29.84 in West 2.3 mph 2.3 mph 93% 0.00 in 0.0 W/m2 OVC
01:32 59.0 °F 57.0 °F 29.84 in SSW 3.5 mph 3.5 mph 93% 0.00 in 0.0 W/m2 OVC
01:37 59.0 °F 56.4 °F 29.83 in SSW 3.5 mph 3.5 mph 91% 0.00 in 0.0 W/m2 OVC
01:42 59.0 °F 57.0 °F 29.83 in SW 3.5 mph 3.5 mph 93% 0.00 in 0.0 W/m2 OVC
01:47 59.0 °F 57.0 °F 29.84 in WNW 3.5 mph 3.5 mph 93% 0.00 in 0.0 W/m2 OVC
01:52 59.0 °F 57.0 °F 29.84 in NNW 3.5 mph 3.5 mph 93% 0.00 in 0.0 W/m2 OVC
01:57 59.0 °F 56.4 °F 29.84 in SSE 3.5 mph 3.5 mph 91% 0.00 in 0.0 W/m2 OVC
02:02 59.0 °F 56.4 °F 29.84 in SW 3.5 mph 3.5 mph 91% 0.00 in 0.0 W/m2 SCT
02:07 59.0 °F 56.4 °F 29.84 in West 2.3 mph 2.3 mph 91% 0.00 in 0.0 W/m2 SCT
02:12 59.0 °F 56.4 °F 29.84 in WSW 3.5 mph 3.5 mph 91% 0.00 in 0.0 W/m2 SCT
02:17 59.0 °F 56.4 °F 29.84 in WSW 3.5 mph 3.5 mph 91% 0.00 in 0.0 W/m2 SCT
02:22 59.0 °F 56.4 °F 29.84 in East 3.5 mph 3.5 mph 91% 0.00 in 0.0 W/m2 SCT
02:27 59.0 °F 57.0 °F 29.83 in ESE 3.5 mph 3.5 mph 93% 0.00 in 0.0 W/m2 SCT
02:32 59.0 °F 57.0 °F 29.83 in SE 3.5 mph 3.5 mph 93% 0.00 in 0.0 W/m2 SCT
02:37 59.0 °F 57.0 °F 29.83 in SE 2.3 mph 2.3 mph 93% 0.00 in 0.0 W/m2 SCT
02:42 59.0 °F 57.0 °F 29.83 in SSW 3.5 mph 3.5 mph 93% 0.00 in 0.0 W/m2 SCT
02:47 59.0 °F 57.0 °F 29.82 in South 3.5 mph 3.5 mph 93% 0.00 in 0.0 W/m2 SCT
02:52 59.0 °F 57.0 °F 29.82 in SW 2.3 mph 2.3 mph 93% 0.00 in 0.0 W/m2 SCT
02:53 59.0 °F 57.0 °F 29.83 in SW 3.5 mph 3.5 mph 93% 0.00 in 0.0 W/m2 SCT
02:58 59.0 °F 57.0 °F 29.82 in WSW 3.5 mph 3.5 mph 93% 0.00 in 0.0 W/m2 SCT
03:03 59.0 °F 57.6 °F 29.82 in East 4.6 mph 4.6 mph 95% 0.00 in 0.0 W/m2 BKN
03:08 59.0 °F 57.6 °F 29.81 in NE 4.6 mph 4.6 mph 95% 0.00 in 0.0 W/m2 BKN
03:13 59.0 °F 57.0 °F 29.81 in East 4.6 mph 4.6 mph 93% 0.00 in 0.0 W/m2 BKN
03:18 59.0 °F 57.0 °F 29.81 in South 3.5 mph 3.5 mph 93% 0.00 in 0.0 W/m2 BKN
03:23 59.0 °F 57.0 °F 29.81 in SSE 3.5 mph 3.5 mph 93% 0.00 in 0.0 W/m2 BKN
03:28 59.0 °F 57.0 °F 29.81 in ESE 3.5 mph 3.5 mph 93% 0.00 in 0.0 W/m2 BKN
03:33 59.0 °F 57.0 °F 29.81 in East 3.5 mph 3.5 mph 93% 0.00 in 0.0 W/m2 BKN
03:38 59.0 °F 57.0 °F 29.81 in SSE 3.5 mph 3.5 mph 93% 0.00 in 0.0 W/m2 BKN
03:43 59.0 °F 57.0 °F 29.81 in South 3.5 mph 3.5 mph 93% 0.00 in 0.0 W/m2 BKN
03:48 59.0 °F 57.0 °F 29.81 in WSW 2.3 mph 2.3 mph 93% 0.00 in 0.0 W/m2 BKN
03:53 59.0 °F 57.0 °F 29.81 in WNW 2.3 mph 2.3 mph 93% 0.00 in 0.0 W/m2 BKN
04:03 59.0 °F 57.0 °F 29.80 in South 2.3 mph 2.3 mph 93% 0.00 in 0.0 W/m2 SCT
04:08 59.0 °F 57.0 °F 29.80 in SW 2.3 mph 2.3 mph 93% 0.00 in 0.0 W/m2 SCT
04:13 59.0 °F 57.0 °F 29.80 in ENE 3.5 mph 3.5 mph 93% 0.00 in 0.0 W/m2 SCT
04:18 59.0 °F 57.0 °F 29.80 in SSE 3.5 mph 3.5 mph 93% 0.00 in 0.0 W/m2 SCT
04:23 59.0 °F 57.6 °F 29.80 in SW 3.5 mph 3.5 mph 95% 0.00 in 0.0 W/m2 SCT
04:28 59.0 °F 57.6 °F 29.80 in ESE 3.5 mph 3.5 mph 95% 0.00 in 0.0 W/m2 SCT
04:33 59.0 °F 57.6 °F 29.80 in NE 2.3 mph 2.3 mph 95% 0.00 in 0.0 W/m2 SCT
04:38 59.0 °F 57.6 °F 29.80 in NNE 2.3 mph 2.3 mph 95% 0.00 in 0.0 W/m2 SCT
04:43 59.0 °F 57.6 °F 29.80 in WSW 3.5 mph 3.5 mph 95% 0.00 in 0.0 W/m2 SCT
04:48 59.0 °F 57.6 °F 29.81 in WSW 3.5 mph 3.5 mph 95% 0.00 in 0.0 W/m2 SCT
04:53 59.0 °F 57.9 °F 29.81 in ESE 3.5 mph 3.5 mph 96% 0.00 in 0.0 W/m2 SCT
04:58 59.0 °F 57.9 °F 29.80 in SE 2.3 mph 2.3 mph 96% 0.00 in 0.0 W/m2 SCT
05:03 59.0 °F 57.9 °F 29.80 in NW 2.3 mph 2.3 mph 96% 0.00 in 0.0 W/m2 CLR
05:08 59.0 °F 57.9 °F 29.80 in WNW 2.3 mph 2.3 mph 96% 0.00 in 0.0 W/m2 CLR
05:13 59.0 °F 57.9 °F 29.80 in SW 2.3 mph 2.3 mph 96% 0.00 in 0.0 W/m2 CLR
05:18 59.0 °F 57.9 °F 29.80 in SSW 3.5 mph 3.5 mph 96% 0.00 in 0.0 W/m2 CLR
05:23 59.0 °F 57.9 °F 29.80 in SSW 3.5 mph 3.5 mph 96% 0.00 in 0.0 W/m2 CLR
05:28 57.2 °F 56.1 °F 29.80 in SE 2.3 mph 2.3 mph 96% 0.00 in 0.0 W/m2 CLR
05:33 57.2 °F 56.1 °F 29.79 in ESE 2.3 mph 2.3 mph 96% 0.00 in 0.0 W/m2 CLR
05:38 57.2 °F 56.1 °F 29.79 in ESE 1.2 mph 1.2 mph 96% 0.00 in 0.0 W/m2 CLR
05:43 57.2 °F 56.1 °F 29.79 in East 1.2 mph   96% 0.00 in 0.0 W/m2 CLR
05:53 57.2 °F 56.1 °F 29.79 in East 2.3 mph 2.3 mph 96% 0.00 in 0.0 W/m2 CLR
05:58 57.2 °F 56.1 °F 29.79 in WSW 2.3 mph   96% 0.00 in 0.0 W/m2 CLR
06:03 57.2 °F 56.1 °F 29.80 in SW 1.2 mph 1.2 mph 96% 0.00 in 0.0 W/m2 CLR
06:09 57.2 °F 56.6 °F 29.81 in SSW 2.3 mph 2.3 mph 98% 0.00 in 0.0 W/m2 CLR
06:14 57.2 °F 56.6 °F 29.80 in SW 2.3 mph 2.3 mph 98% 0.00 in 0.0 W/m2 CLR
06:19 57.2 °F 56.6 °F 29.81 in WSW 3.5 mph 3.5 mph 98% 0.00 in 0.0 W/m2 CLR
06:24 57.2 °F 56.6 °F 29.81 in SW 3.5 mph   98% 0.00 in 0.0 W/m2 CLR
06:29 59.0 °F 57.9 °F 29.81 in SW 1.2 mph 1.2 mph 96% 0.00 in 0.0 W/m2 CLR
06:34 59.0 °F 57.9 °F 29.81 in SW 1.2 mph 1.2 mph 96% 0.00 in 0.0 W/m2 CLR
06:39 59.0 °F 57.9 °F 29.81 in South 2.3 mph 2.3 mph 96% 0.00 in 0.0 W/m2 CLR
06:44 59.0 °F 57.6 °F 29.80 in SE 2.3 mph 2.3 mph 95% 0.00 in 0.0 W/m2 CLR
06:49 59.0 °F 57.6 °F 29.80 in SSW 2.3 mph 2.3 mph 95% 0.00 in 0.0 W/m2 CLR
06:54 59.0 °F 57.6 °F 29.80 in South 2.3 mph 2.3 mph 95% 0.00 in 0.0 W/m2 CLR
06:59 60.8 °F 58.8 °F 29.80 in SSE 3.5 mph 3.5 mph 93% 0.00 in 0.0 W/m2 CLR
Juneau County Weather
Compliments of Weather Underground - 4.5 mb